Time;durP1;ratioP1;P1;durP2;ratioP2;P2;SDS_P1;SDS_P2;PMS_P1;PMS_P2;Temp;Humidity;BMP_temperature;BMP_pressure;BME280_temperature;BME280_humidity;BME280_pressure;Samples;Min_cycle;Max_cycle;Signal;HPM_P1;HPM_P2
2021/07/11 00:01:34;;;;;;;9.68;2.60;;;;;;;17.61;97.80;98994.09;5153098;27;20482;-79
2021/07/11 00:04:02;;;;;;;4.03;2.15;;;;;;;17.46;97.87;98976.13;5152953;27;20047;-79
2021/07/11 00:06:31;;;;;;;2.70;2.50;;;;;;;17.37;97.71;98977.53;5147572;27;20043;-80
2021/07/11 00:08:57;;;;;;;3.75;2.35;;;;;;;17.49;96.98;98980.31;5148371;27;20084;-80
2021/07/11 00:11:27;;;;;;;2.65;2.00;;;;;;;17.53;97.90;98976.03;5152506;27;20169;-80
2021/07/11 00:13:54;;;;;;;5.32;2.22;;;;;;;17.45;97.73;98968.97;5152832;27;20091;-80
2021/07/11 00:16:20;;;;;;;3.90;2.40;;;;;;;17.48;97.45;98975.91;5151289;27;20493;-79
2021/07/11 00:18:47;;;;;;;3.42;2.38;;;;;;;17.50;97.69;98977.31;5156093;27;20053;-79
2021/07/11 00:21:17;;;;;;;3.00;2.30;;;;;;;17.64;97.60;98972.47;5156634;27;20104;-79
2021/07/11 00:23:44;;;;;;;6.35;2.72;;;;;;;17.46;98.60;98964.28;5156195;27;20141;-79
2021/07/11 00:26:10;;;;;;;3.58;2.78;;;;;;;17.52;97.07;98955.09;5156380;27;20501;-79
2021/07/11 00:28:37;;;;;;;3.28;2.40;;;;;;;17.50;97.93;98968.25;5155543;27;20042;-79
2021/07/11 00:31:04;;;;;;;3.88;2.50;;;;;;;17.48;98.16;98959.41;5156274;27;20177;-79
2021/07/11 00:33:31;;;;;;;4.57;2.20;;;;;;;17.54;98.24;98955.72;5151176;27;20439;-79
2021/07/11 00:35:58;;;;;;;4.63;2.30;;;;;;;17.63;98.63;98968.06;5156392;27;20115;-79
2021/07/11 00:38:26;;;;;;;4.63;2.60;;;;;;;17.44;98.26;98967.28;5150160;27;20107;-79
2021/07/11 00:40:53;;;;;;;4.10;2.53;;;;;;;17.54;99.29;98972.22;5156464;27;20107;-79
2021/07/11 00:43:20;;;;;;;2.63;2.10;;;;;;;17.44;99.76;98974.69;5138010;27;20099;-79
2021/07/11 00:45:47;;;;;;;5.22;2.38;;;;;;;17.49;100.00;98972.06;5156038;27;20088;-79
2021/07/11 00:48:14;;;;;;;5.57;2.50;;;;;;;17.51;98.77;98958.94;5155044;27;20069;-79
2021/07/11 00:50:40;;;;;;;4.72;2.45;;;;;;;17.41;100.00;98961.41;5154634;27;20042;-79
2021/07/11 00:53:08;;;;;;;7.40;2.58;;;;;;;17.43;99.99;98978.50;5155597;27;20107;-79
2021/07/11 00:55:37;;;;;;;5.40;2.80;;;;;;;17.43;99.13;98959.25;5154746;27;20104;-79
2021/07/11 00:58:04;;;;;;;4.25;2.72;;;;;;;17.27;100.00;98967.13;5135281;27;20498;-79
2021/07/11 01:00:32;;;;;;;6.75;2.90;;;;;;;17.24;100.00;98966.75;5152121;27;20524;-79
2021/07/11 01:03:06;;;;;;;4.82;2.97;;;;;;;17.22;100.00;98971.63;5155829;27;20084;-79
2021/07/11 01:05:33;;;;;;;5.43;2.53;;;;;;;17.11;100.00;98965.84;5147165;27;20042;-79
2021/07/11 01:08:06;;;;;;;3.45;2.33;;;;;;;17.15;100.00;98966.25;5154335;27;20506;-79
2021/07/11 01:10:38;;;;;;;2.60;2.38;;;;;;;17.24;100.00;98983.22;5151797;27;20047;-79
2021/07/11 01:13:09;;;;;;;7.75;2.72;;;;;;;17.12;100.00;98977.69;5143737;27;20054;-79
2021/07/11 01:15:38;;;;;;;4.85;2.47;;;;;;;17.07;100.00;98983.88;5155791;27;20047;-79
2021/07/11 01:18:08;;;;;;;3.47;2.77;;;;;;;17.15;100.00;99000.03;5155380;27;20099;-79
2021/07/11 01:20:40;;;;;;;2.75;2.40;;;;;;;17.14;100.00;98998.34;5154006;27;20043;-79
2021/07/11 01:23:09;;;;;;;3.55;2.20;;;;;;;17.09;100.00;98998.22;5143163;27;20555;-79
2021/07/11 01:25:41;;;;;;;5.40;2.45;;;;;;;17.15;100.00;98989.03;5154603;27;20505;-79
2021/07/11 01:28:11;;;;;;;5.50;2.47;;;;;;;17.29;99.90;98991.59;5154749;27;20046;-79
2021/07/11 01:30:40;;;;;;;6.00;2.35;;;;;;;17.26;99.85;98972.84;5154102;27;20042;-79
2021/07/11 01:33:10;;;;;;;4.75;2.22;;;;;;;17.31;99.45;98993.06;5155234;27;20458;-79
2021/07/11 01:35:37;;;;;;;;;;;;;;;17.26;99.49;98997.56;5155837;27;20117;-79
2021/07/11 01:38:04;;;;;;;3.60;1.98;;;;;;;17.22;98.02;98997.16;5148104;27;19968;-79
2021/07/11 01:40:31;;;;;;;3.75;1.90;;;;;;;17.10;98.26;98979.81;5137929;27;20042;-79
2021/07/11 01:43:00;;;;;;;2.13;1.88;;;;;;;17.14;96.71;98987.34;5153100;27;20053;-79
2021/07/11 01:45:28;;;;;;;2.90;2.20;;;;;;;17.17;98.42;99008.03;5153099;27;20055;-79
2021/07/11 01:47:56;;;;;;;2.38;1.63;;;;;;;17.13;97.70;99001.31;5154018;27;20099;-79
2021/07/11 01:50:24;;;;;;;2.58;1.77;;;;;;;17.13;97.04;98993.94;5154813;27;20466;-79
2021/07/11 01:52:51;;;;;;;3.05;1.80;;;;;;;17.02;96.12;98989.22;5153870;27;20047;-79
2021/07/11 01:55:19;;;;;;;4.50;1.65;;;;;;;17.00;97.05;98994.09;5142645;27;20047;-79
2021/07/11 01:57:46;;;;;;;2.45;1.42;;;;;;;17.09;98.04;99000.13;5137850;27;20051;-79
2021/07/11 02:00:17;;;;;;;2.50;1.75;;;;;;;16.98;97.37;98982.50;5154747;27;20808;-79
2021/07/11 02:02:44;;;;;;;1.95;1.73;;;;;;;17.07;97.91;98989.38;5153584;27;20043;-79
2021/07/11 02:05:12;;;;;;;2.72;1.52;;;;;;;16.99;98.38;98986.94;5154582;27;20436;-79
2021/07/11 02:07:39;;;;;;;2.00;1.83;;;;;;;17.16;96.16;98987.97;5153819;27;20418;-79
2021/07/11 02:10:09;;;;;;;2.10;1.77;;;;;;;17.08;97.02;98987.44;5149799;27;20107;-79
2021/07/11 02:12:41;;;;;;;3.42;1.60;;;;;;;17.04;95.97;98995.31;5146455;27;20096;-79
2021/07/11 02:15:09;;;;;;;1.80;1.63;;;;;;;16.92;97.56;99014.47;5136589;27;20043;-79
2021/07/11 02:17:41;;;;;;;3.33;1.77;;;;;;;16.89;96.54;99000.34;5150774;27;20055;-79
2021/07/11 02:20:09;;;;;;;2.10;1.90;;;;;;;16.97;97.37;99009.13;5153677;27;20055;-79
2021/07/11 02:22:41;;;;;;;4.25;1.77;;;;;;;16.82;96.95;98992.19;5153954;27;20402;-79
2021/07/11 02:25:09;;;;;;;4.70;2.00;;;;;;;16.77;97.13;98987.38;5153433;27;20047;-79
2021/07/11 02:27:35;;;;;;;1.98;1.60;;;;;;;16.90;97.26;99004.78;5144420;27;20051;-79
2021/07/11 02:30:10;;;;;;;8.25;2.40;;;;;;;16.86;97.21;99009.03;5153274;27;20188;-79
2021/07/11 02:32:43;;;;;;;2.53;1.60;;;;;;;16.72;96.67;98978.97;5147867;27;20137;-79
2021/07/11 02:35:10;;;;;;;1.92;1.70;;;;;;;16.79;95.88;99000.88;5133359;27;20055;-79
2021/07/11 02:37:40;;;;;;;2.28;1.83;;;;;;;16.86;96.34;99000.78;5142509;27;20535;-79
2021/07/11 02:40:08;;;;;;;4.07;1.67;;;;;;;16.81;96.00;98994.06;5153564;27;20051;-79
2021/07/11 02:42:36;;;;;;;4.25;1.83;;;;;;;16.90;95.58;99011.09;5153298;27;20043;-79
2021/07/11 02:45:04;;;;;;;2.75;1.70;;;;;;;16.85;97.06;99007.38;5153564;27;20051;-79
2021/07/11 02:47:33;;;;;;;4.78;2.13;;;;;;;16.78;96.47;98999.19;5151235;27;20043;-79
2021/07/11 02:50:06;;;;;;;2.67;2.05;;;;;;;16.93;94.54;99007.06;5148496;27;20137;-79
2021/07/11 02:52:33;;;;;;;4.03;2.03;;;;;;;16.72;96.91;99000.94;5153185;27;20047;-79
2021/07/11 02:55:05;;;;;;;4.90;1.63;;;;;;;16.58;96.63;99003.00;5153277;27;20054;-79
2021/07/11 02:57:34;;;;;;;4.20;2.00;;;;;;;16.63;96.87;98997.69;5153751;27;20073;-79
2021/07/11 03:00:02;;;;;;;3.45;1.83;;;;;;;16.61;96.91;99007.22;5152907;27;20050;-79
2021/07/11 03:02:31;;;;;;;5.95;1.90;;;;;;;16.71;95.20;98988.31;5151249;27;20447;-79
2021/07/11 03:04:59;;;;;;;5.03;1.67;;;;;;;16.71;97.01;99013.00;5153099;27;20053;-79
2021/07/11 03:07:27;;;;;;;1.98;1.80;;;;;;;16.66;96.16;99009.28;5147293;27;20131;-79
2021/07/11 03:09:54;;;;;;;7.07;1.98;;;;;;;16.64;96.93;99007.59;5153217;27;20047;-79
2021/07/11 03:12:21;;;;;;;9.32;1.92;;;;;;;16.70;96.63;99005.84;5151513;27;20046;-79
2021/07/11 03:14:49;;;;;;;4.75;1.73;;;;;;;16.63;97.12;98994.09;5142823;27;20050;-79
2021/07/11 03:17:20;;;;;;;7.05;1.88;;;;;;;16.60;96.61;99006.34;5152608;27;20481;-79
2021/07/11 03:19:51;;;;;;;4.18;1.55;;;;;;;16.53;97.44;98993.78;5152139;27;20047;-79
2021/07/11 03:22:23;;;;;;;6.85;1.90;;;;;;;16.61;98.03;99009.94;5151977;27;20530;-79
2021/07/11 03:24:55;;;;;;;5.45;1.85;;;;;;;16.60;98.13;99006.34;5153602;27;20390;-79
2021/07/11 03:27:22;;;;;;;9.77;3.42;;;;;;;16.58;99.17;99013.16;5152693;27;20055;-79
2021/07/11 03:30:01;;;;;;;6.13;1.58;;;;;;;16.39;99.29;98995.81;5153540;27;20054;-79
2021/07/11 03:32:29;;;;;;;7.22;2.65;;;;;;;16.51;98.60;99010.47;5153366;27;20070;-79
2021/07/11 03:35:00;;;;;;;5.15;2.00;;;;;;;16.38;99.49;99008.72;5151789;27;20123;-79
2021/07/11 03:37:28;;;;;;;3.60;1.80;;;;;;;16.52;99.42;99009.41;5152431;27;20126;-78
2021/07/11 03:39:57;;;;;;;4.65;1.75;;;;;;;16.54;99.44;98999.03;5152541;27;20062;-78
2021/07/11 03:42:26;;;;;;;7.45;2.17;;;;;;;16.68;98.06;99013.47;5153162;27;20486;-78
2021/07/11 03:44:58;;;;;;;5.30;1.90;;;;;;;16.73;97.98;99002.63;5151596;27;20455;-79
2021/07/11 03:47:33;;;;;;;3.65;1.90;;;;;;;16.67;97.32;99010.94;5153486;27;20078;-79
2021/07/11 03:50:00;;;;;;;3.00;1.73;;;;;;;16.70;97.55;99005.84;5152173;27;20107;-78
2021/07/11 03:52:31;;;;;;;2.42;1.80;;;;;;;16.62;97.01;99019.88;5155694;27;20049;-78
2021/07/11 03:55:00;;;;;;;4.30;1.80;;;;;;;16.63;97.74;99021.53;5147163;27;20039;-79
2021/07/11 03:57:29;;;;;;;5.78;1.88;;;;;;;16.57;96.89;99012.28;5154623;27;20418;-78
2021/07/11 03:59:57;;;;;;;3.17;2.03;;;;;;;16.60;97.18;99017.31;5157078;27;20099;-79
2021/07/11 04:02:27;;;;;;;6.15;2.05;;;;;;;16.55;97.65;99011.69;5156005;27;20051;-79
2021/07/11 04:04:57;;;;;;;7.35;2.08;;;;;;;16.46;98.25;99016.63;5156930;27;20233;-78
2021/07/11 04:07:27;;;;;;;4.57;1.67;;;;;;;16.42;98.32;99014.56;5155772;27;20047;-78
2021/07/11 04:09:55;;;;;;;4.40;1.52;;;;;;;16.35;98.60;99006.44;5156972;27;20482;-78
2021/07/11 04:12:23;;;;;;;4.93;1.95;;;;;;;16.61;98.02;99031.91;5151847;27;20103;-78
2021/07/11 04:14:50;;;;;;;7.90;1.83;;;;;;;16.57;98.46;99037.00;5156388;27;20087;-78
2021/07/11 04:17:22;;;;;;;7.53;1.88;;;;;;;16.46;98.14;99033.09;5148737;27;20050;-78
2021/07/11 04:19:55;;;;;;;5.07;2.00;;;;;;;16.44;100.00;99020.69;5156185;27;20114;-78
2021/07/11 04:22:22;;;;;;;6.80;2.00;;;;;;;16.36;98.87;99016.31;5156391;27;20070;-78
2021/07/11 04:24:51;;;;;;;6.38;2.03;;;;;;;16.50;98.41;99035.38;5156061;27;20075;-78
2021/07/11 04:27:19;;;;;;;6.07;1.85;;;;;;;16.49;97.83;99026.34;5156550;27;20054;-78
2021/07/11 04:29:51;;;;;;;5.75;1.58;;;;;;;16.51;96.60;99037.06;5146760;27;20050;-79
2021/07/11 04:32:18;;;;;;;5.97;1.67;;;;;;;16.44;96.36;99035.25;5156097;27;20472;-78
2021/07/11 04:34:45;;;;;;;5.50;1.70;;;;;;;16.39;97.18;99015.84;5156324;27;20486;-78
2021/07/11 04:37:12;;;;;;;4.22;2.03;;;;;;;16.62;96.82;99039.09;5156138;27;20054;-78
2021/07/11 04:39:39;;;;;;;7.75;1.83;;;;;;;16.51;96.44;99043.41;5156129;27;20482;-79
2021/07/11 04:42:06;;;;;;;2.38;1.60;;;;;;;16.70;97.17;99048.94;5155753;27;20053;-79
2021/07/11 04:44:33;;;;;;;2.97;1.58;;;;;;;16.52;97.78;99034.09;5155228;27;20058;-79
2021/07/11 04:47:02;;;;;;;2.28;1.83;;;;;;;16.63;96.66;99044.34;5136196;27;20043;-79
2021/07/11 04:49:29;;;;;;;2.83;1.67;;;;;;;16.65;96.58;99035.88;5155274;27;20129;-79
2021/07/11 04:51:57;;;;;;;2.70;1.73;;;;;;;16.66;96.94;99040.28;5153345;27;20054;-79
2021/07/11 04:54:24;;;;;;;3.33;1.55;;;;;;;16.58;95.19;99041.44;5155408;27;20129;-78
2021/07/11 04:56:51;;;;;;;3.13;1.80;;;;;;;16.58;94.08;99044.16;5154482;27;20118;-79
2021/07/11 04:59:18;;;;;;;3.53;1.77;;;;;;;16.60;96.75;99031.03;5155676;27;20046;-79
2021/07/11 05:01:45;;;;;;;2.45;1.67;;;;;;;16.71;95.47;99056.06;5153794;27;20478;-79
2021/07/11 05:04:13;;;;;;;3.60;2.25;;;;;;;16.76;94.90;99048.00;5153447;27;20050;-79
2021/07/11 05:06:40;;;;;;;7.03;2.28;;;;;;;16.75;95.22;99047.16;5154952;27;20454;-79
2021/07/11 05:09:07;;;;;;;3.38;2.08;;;;;;;16.71;93.19;99042.34;5145182;27;20047;-79
2021/07/11 05:11:34;;;;;;;5.25;1.80;;;;;;;16.74;94.55;99058.34;5154021;27;20043;-79
2021/07/11 05:14:00;;;;;;;4.72;1.70;;;;;;;16.75;94.99;99062.78;5153956;27;20043;-79
2021/07/11 05:16:27;;;;;;;5.60;1.70;;;;;;;16.90;96.26;99070.69;5141867;27;20046;-79
2021/07/11 05:18:54;;;;;;;3.38;2.08;;;;;;;16.82;94.11;99069.06;5154585;27;20046;-78
2021/07/11 05:21:23;;;;;;;3.75;1.73;;;;;;;16.83;95.42;99059.75;5134889;27;20046;-79
2021/07/11 05:23:49;;;;;;;2.20;1.90;;;;;;;16.77;93.15;99067.00;5145149;27;20180;-78
2021/07/11 05:26:16;;;;;;;4.53;1.70;;;;;;;16.78;91.96;99071.41;5154563;27;20058;-78
2021/07/11 05:28:44;;;;;;;2.97;1.95;;;;;;;16.78;93.74;99065.06;5154741;27;20054;-79
2021/07/11 05:31:11;;;;;;;6.63;3.33;;;;;;;16.72;93.03;99063.25;5147419;27;20539;-79
2021/07/11 05:33:39;;;;;;;4.45;1.95;;;;;;;16.72;92.17;99055.84;5154346;27;20038;-79
2021/07/11 05:36:07;;;;;;;2.75;1.88;;;;;;;16.68;91.51;99057.38;5151583;27;20095;-79
2021/07/11 05:38:36;;;;;;;4.28;2.25;;;;;;;16.86;93.40;99069.44;5154846;27;20050;-79
2021/07/11 05:41:03;;;;;;;3.30;1.98;;;;;;;17.00;91.45;99060.00;5153414;27;20054;-79
2021/07/11 05:43:30;;;;;;;9.18;2.85;;;;;;;16.88;92.48;99045.38;5154231;27;20047;-79
2021/07/11 05:45:57;;;;;;;3.97;1.58;;;;;;;16.97;91.13;99058.56;5154293;27;20100;-78
2021/07/11 05:48:24;;;;;;;3.80;1.83;;;;;;;16.93;90.23;99057.31;5154038;27;20091;-78
2021/07/11 05:50:50;;;;;;;7.25;2.30;;;;;;;16.93;91.08;99056.50;5149094;27;20099;-78
2021/07/11 05:53:18;;;;;;;3.83;1.90;;;;;;;16.96;90.08;99062.34;5148072;27;20447;-79
2021/07/11 05:55:46;;;;;;;2.53;1.75;;;;;;;16.83;91.05;99067.13;5154466;27;20111;-79
2021/07/11 05:58:13;;;;;;;4.78;1.92;;;;;;;16.87;91.01;99051.94;5154009;27;20047;-79
2021/07/11 06:00:40;;;;;;;5.10;2.13;;;;;;;17.02;89.60;99046.88;5153651;27;20047;-79
2021/07/11 06:03:06;;;;;;;5.47;2.22;;;;;;;17.01;91.29;99053.44;5149804;27;20086;-78
2021/07/11 06:05:37;;;;;;;3.05;2.10;;;;;;;17.25;90.96;99062.66;5133924;27;20055;-78
2021/07/11 06:08:04;;;;;;;5.00;2.25;;;;;;;17.33;88.58;99056.00;5147294;27;20054;-79
2021/07/11 06:10:31;;;;;;;1.90;1.70;;;;;;;17.30;90.43;99049.06;5133577;27;20047;-78
2021/07/11 06:12:59;;;;;;;3.70;1.95;;;;;;;17.19;89.75;99060.00;5151276;27;20087;-79
2021/07/11 06:15:26;;;;;;;14.13;1.98;;;;;;;17.28;89.79;99067.69;5149099;27;20039;-79
2021/07/11 06:17:53;;;;;;;4.07;2.20;;;;;;;16.99;87.61;99061.06;5139068;27;20398;-79
2021/07/11 06:20:20;;;;;;;4.43;2.05;;;;;;;16.83;89.63;99069.88;5145507;27;20478;-78
2021/07/11 06:22:47;;;;;;;4.68;2.35;;;;;;;16.84;91.09;99055.09;5154337;27;20573;-79
2021/07/11 06:25:14;;;;;;;3.97;2.17;;;;;;;16.90;89.65;99081.66;5146969;27;20077;-79
2021/07/11 06:27:43;;;;;;;3.85;2.13;;;;;;;16.84;90.25;99088.88;5132968;27;20383;-79
2021/07/11 06:30:14;;;;;;;4.15;2.10;;;;;;;16.88;89.19;99081.91;5143517;27;20087;-79
2021/07/11 06:32:42;;;;;;;4.85;2.30;;;;;;;16.89;89.87;99079.97;5152840;27;20050;-79
2021/07/11 06:35:12;;;;;;;7.75;2.28;;;;;;;16.96;89.99;99078.00;5153598;27;20063;-79
2021/07/11 06:37:39;;;;;;;3.80;2.17;;;;;;;17.10;88.21;99075.94;5153144;27;20046;-79
2021/07/11 06:40:07;;;;;;;4.65;2.10;;;;;;;17.49;88.57;99082.00;5150450;27;20051;-79
2021/07/11 06:42:34;;;;;;;3.53;2.30;;;;;;;17.74;86.35;99089.28;5145673;27;20050;-79
2021/07/11 06:45:01;;;;;;;4.00;2.08;;;;;;;17.68;87.18;99088.28;5152085;27;20049;-79
2021/07/11 06:47:30;;;;;;;3.40;1.83;;;;;;;17.79;84.07;99100.41;5153332;27;20124;-79
2021/07/11 06:49:57;;;;;;;6.47;2.40;;;;;;;18.16;85.54;99094.81;5153077;27;20051;-79
2021/07/11 06:52:24;;;;;;;8.52;2.08;;;;;;;18.60;84.52;99089.81;5152654;27;20051;-79
2021/07/11 06:54:52;;;;;;;3.53;1.98;;;;;;;18.87;78.40;99084.69;5147489;27;20176;-79
2021/07/11 06:57:34;;;;;;;2.65;2.00;;;;;;;19.13;78.76;99088.00;5148109;27;20130;-81
2021/07/11 07:00:01;;;;;;;3.33;2.10;;;;;;;18.74;78.33;99083.00;5143946;27;20110;-80
2021/07/11 07:02:28;;;;;;;3.60;2.20;;;;;;;18.86;79.90;99082.16;5154505;27;20047;-80
2021/07/11 07:04:56;;;;;;;5.68;2.53;;;;;;;18.89;78.70;99092.69;5152008;27;20467;-80
2021/07/11 07:07:22;;;;;;;2.85;1.90;;;;;;;18.71;78.77;99091.75;5145133;27;20096;-79
2021/07/11 07:09:49;;;;;;;3.55;2.22;;;;;;;18.24;80.65;99071.59;5151417;27;20114;-79
2021/07/11 07:12:17;;;;;;;5.88;2.05;;;;;;;18.42;82.36;99079.75;5133291;27;20043;-79
2021/07/11 07:14:44;;;;;;;3.45;1.88;;;;;;;18.43;81.88;99084.19;5139576;27;20197;-80
2021/07/11 07:17:11;;;;;;;4.63;1.70;;;;;;;18.59;78.71;99088.13;5146195;27;20062;-79
2021/07/11 07:19:38;;;;;;;4.68;1.88;;;;;;;18.70;79.83;99080.97;5141562;27;20095;-79
2021/07/11 07:22:06;;;;;;;2.85;2.00;;;;;;;18.78;77.49;99086.09;5147515;27;20047;-79
2021/07/11 07:24:33;;;;;;;4.45;2.08;;;;;;;19.02;77.31;99075.91;5152636;27;20125;-79
2021/07/11 07:26:59;;;;;;;3.63;2.25;;;;;;;19.05;75.51;99089.22;5154062;27;20383;-79
2021/07/11 07:29:26;;;;;;;5.03;2.10;;;;;;;18.97;75.74;99100.63;5157257;27;20087;-79
2021/07/11 07:31:53;;;;;;;2.22;1.60;;;;;;;18.96;76.73;99092.59;5157499;27;20039;-79
2021/07/11 07:34:20;;;;;;;5.65;1.67;;;;;;;19.13;74.96;99095.44;5156392;27;20042;-79
2021/07/11 07:36:46;;;;;;;3.63;1.90;;;;;;;19.26;74.09;99079.47;5142658;27;20116;-79
2021/07/11 07:39:15;;;;;;;2.47;1.90;;;;;;;19.01;74.41;99106.47;5147339;27;20051;-79
2021/07/11 07:41:41;;;;;;;2.40;1.80;;;;;;;19.15;75.72;99087.75;5157005;27;20498;-79
2021/07/11 07:44:08;;;;;;;4.10;1.70;;;;;;;19.65;74.61;99106.44;5154287;27;20083;-79
2021/07/11 07:46:35;;;;;;;2.47;1.75;;;;;;;19.21;73.32;99093.16;5157303;27;20046;-79
2021/07/11 07:49:02;;;;;;;2.30;1.70;;;;;;;18.90;72.94;99092.47;5157003;27;20034;-79
2021/07/11 07:51:29;;;;;;;1.48;1.38;;;;;;;19.05;74.57;99094.72;5155803;27;20107;-79
2021/07/11 07:53:56;;;;;;;2.53;1.63;;;;;;;19.81;71.35;99085.50;5146055;27;20467;-79
2021/07/11 07:56:27;;;;;;;3.92;1.75;;;;;;;20.01;69.14;99087.81;5148949;27;20058;-79
2021/07/11 07:58:54;;;;;;;3.13;1.48;;;;;;;20.73;67.53;99080.72;5154667;27;20623;-79
2021/07/11 08:01:20;;;;;;;1.98;1.58;;;;;;;21.02;64.51;99089.69;5158115;27;20508;-79
2021/07/11 08:03:47;;;;;;;5.50;1.38;;;;;;;21.48;65.62;99096.91;5156837;27;20070;-79
2021/07/11 08:06:14;;;;;;;3.10;1.60;;;;;;;21.49;61.99;99091.13;5155725;27;20042;-78
2021/07/11 08:08:42;;;;;;;6.35;1.27;;;;;;;21.50;62.03;99097.53;5156643;27;20099;-79
2021/07/11 08:11:08;;;;;;;3.35;1.40;;;;;;;21.53;61.14;99092.31;5156574;27;20095;-79
2021/07/11 08:13:37;;;;;;;4.80;1.58;;;;;;;21.24;61.71;99094.38;5137891;27;20092;-79
2021/07/11 08:16:09;;;;;;;1.27;1.17;;;;;;;21.38;61.84;99089.34;5150191;27;20498;-79
2021/07/11 08:18:36;;;;;;;1.42;1.15;;;;;;;21.04;64.17;99090.25;5155386;27;20165;-78
2021/07/11 08:21:03;;;;;;;4.32;1.60;;;;;;;21.46;63.96;99086.09;5156171;27;20038;-78
2021/07/11 08:23:30;;;;;;;4.43;2.72;;;;;;;21.92;61.18;99094.94;5154689;27;20047;-79
2021/07/11 08:25:57;;;;;;;2.08;1.55;;;;;;;22.38;59.16;99104.81;5156496;27;20531;-78
2021/07/11 08:28:24;;;;;;;5.18;1.42;;;;;;;22.34;57.79;99107.28;5154033;27;20130;-78
2021/07/11 08:30:52;;;;;;;2.63;1.48;;;;;;;22.84;58.69;99099.59;5135250;27;20059;-78
2021/07/11 08:33:19;;;;;;;2.45;1.38;;;;;;;22.59;57.45;99109.41;5145396;27;20043;-78
2021/07/11 08:35:47;;;;;;;1.88;1.30;;;;;;;21.86;58.34;99093.22;5152292;27;20058;-78
2021/07/11 08:38:14;;;;;;;1.60;1.10;;;;;;;21.80;60.64;99105.34;5155167;27;20050;-79
2021/07/11 08:40:41;;;;;;;2.30;1.20;;;;;;;22.59;58.63;99100.25;5154987;27;20200;-78
2021/07/11 08:43:09;;;;;;;2.50;1.30;;;;;;;22.49;56.57;99091.88;5155225;27;20039;-78
2021/07/11 08:45:36;;;;;;;2.42;1.30;;;;;;;22.56;58.36;99104.38;5155087;27;20517;-78
2021/07/11 08:48:05;;;;;;;3.13;1.40;;;;;;;22.78;55.78;99103.44;5154112;27;20042;-79
2021/07/11 08:50:35;;;;;;;2.20;0.98;;;;;;;22.75;52.78;99101.22;5143292;27;20050;-79
2021/07/11 08:53:03;;;;;;;4.53;1.38;;;;;;;22.60;55.17;99102.75;5155535;27;20094;-79
2021/07/11 08:55:30;;;;;;;1.52;1.13;;;;;;;22.95;55.69;99106.03;5155019;27;20047;-79
2021/07/11 08:57:59;;;;;;;1.52;1.30;;;;;;;23.10;55.52;99105.34;5154477;27;20049;-79
2021/07/11 09:00:28;;;;;;;4.57;1.02;;;;;;;23.28;53.82;99087.41;5155747;27;20050;-79
2021/07/11 09:02:55;;;;;;;6.30;1.30;;;;;;;22.36;56.91;99096.75;5152326;27;20486;-79
2021/07/11 09:05:29;;;;;;;3.92;1.40;;;;;;;22.51;56.29;99093.28;5134598;27;20130;-79
2021/07/11 09:08:04;;;;;;;2.30;1.13;;;;;;;22.65;56.05;99092.81;5152849;27;20050;-79
2021/07/11 09:10:32;;;;;;;1.92;1.23;;;;;;;23.10;55.26;99106.16;5155666;27;20395;-79
2021/07/11 09:12:59;;;;;;;4.15;1.27;;;;;;;23.09;56.69;99104.47;5153058;27;20047;-79
2021/07/11 09:15:34;;;;;;;1.83;0.88;;;;;;;22.70;56.15;99112.25;5155521;27;20069;-78
2021/07/11 09:18:01;;;;;;;3.28;1.20;;;;;;;22.31;57.98;99113.34;5154338;27;20047;-78
2021/07/11 09:20:30;;;;;;;1.48;1.00;;;;;;;21.96;57.55;99113.78;5153927;27;20046;-78
2021/07/11 09:22:58;;;;;;;1.80;1.40;;;;;;;21.83;58.86;99113.13;5154400;27;20050;-78
2021/07/11 09:25:25;;;;;;;1.48;1.13;;;;;;;21.58;58.87;99099.00;5154348;27;20099;-78
2021/07/11 09:27:51;;;;;;;1.42;1.30;;;;;;;22.69;58.22;99121.66;5154827;27;20095;-78
2021/07/11 09:30:18;;;;;;;3.75;1.20;;;;;;;22.55;55.75;99111.03;5154042;27;20047;-78
2021/07/11 09:32:46;;;;;;;2.30;1.55;;;;;;;22.34;56.48;99114.72;5154282;27;20095;-78
2021/07/11 09:35:16;;;;;;;8.88;1.38;;;;;;;22.42;58.66;99117.84;5152308;27;20120;-79
2021/07/11 09:37:45;;;;;;;5.97;2.15;;;;;;;22.32;58.00;99114.16;5134199;27;20620;-79
2021/07/11 09:40:16;;;;;;;3.17;1.40;;;;;;;21.95;58.23;99109.34;5153818;27;20153;-79
2021/07/11 09:42:44;;;;;;;2.45;1.10;;;;;;;21.89;56.22;99114.84;5153570;27;20054;-79
2021/07/11 09:45:17;;;;;;;2.25;1.25;;;;;;;22.16;57.58;99114.00;5153429;27;20064;-79
2021/07/11 09:47:45;;;;;;;1.40;1.30;;;;;;;22.25;56.44;99119.88;5144914;27;20096;-79
2021/07/11 09:50:14;;;;;;;3.63;0.93;;;;;;;22.77;56.41;99121.16;5133631;27;20059;-79
2021/07/11 09:52:46;;;;;;;1.20;1.00;;;;;;;22.50;54.23;99110.16;5149432;27;20061;-79
2021/07/11 09:55:20;;;;;;;1.58;0.98;;;;;;;22.41;57.18;99099.56;5133268;27;20163;-79
2021/07/11 09:57:52;;;;;;;1.58;1.05;;;;;;;22.35;58.19;99114.47;5151358;27;20167;-78
2021/07/11 10:00:24;;;;;;;2.25;1.30;;;;;;;21.97;58.99;99116.31;5149057;27;20497;-79
2021/07/11 10:02:53;;;;;;;3.40;1.08;;;;;;;21.74;58.19;99103.63;5153965;27;20336;-78
2021/07/11 10:05:21;;;;;;;1.27;1.15;;;;;;;22.14;56.88;99113.41;5148185;27;20426;-78
2021/07/11 10:07:49;;;;;;;1.67;1.13;;;;;;;22.28;54.33;99124.88;5147269;27;20066;-78
2021/07/11 10:10:19;;;;;;;1.67;1.27;;;;;;;22.55;54.89;99122.13;5152948;27;20057;-78
2021/07/11 10:12:47;;;;;;;4.00;1.25;;;;;;;22.30;54.92;99122.72;5153161;27;20403;-79
2021/07/11 10:15:17;;;;;;;2.58;1.25;;;;;;;22.50;54.33;99111.00;5144909;27;20043;-78
2021/07/11 10:17:47;;;;;;;2.80;1.43;;;;;;;22.68;54.86;99125.53;5151361;27;20051;-78
2021/07/11 10:20:16;;;;;;;1.80;1.00;;;;;;;22.40;54.94;99106.22;5145604;27;20685;-79
2021/07/11 10:22:46;;;;;;;1.73;1.00;;;;;;;22.33;56.58;99119.44;5137082;27;20097;-79
2021/07/11 10:25:15;;;;;;;4.35;1.00;;;;;;;22.16;54.84;99115.91;5132020;27;20513;-78
2021/07/11 10:27:44;;;;;;;1.98;1.10;;;;;;;21.90;57.24;99099.06;5149235;27;20070;-78
2021/07/11 10:30:12;;;;;;;1.67;1.25;;;;;;;22.07;57.79;99108.09;5153905;27;20042;-78
2021/07/11 10:32:39;;;;;;;1.80;1.30;;;;;;;22.08;56.63;99097.84;5147498;27;20091;-78
2021/07/11 10:35:11;;;;;;;1.08;0.98;;;;;;;22.01;57.35;99097.22;5153482;27;20447;-78
2021/07/11 10:37:47;;;;;;;2.45;1.30;;;;;;;22.38;56.20;99096.50;5152904;27;20556;-78
2021/07/11 10:40:16;;;;;;;1.90;1.08;;;;;;;22.62;55.50;99097.78;5146306;27;20443;-78
2021/07/11 10:42:45;;;;;;;4.18;1.42;;;;;;;22.93;54.91;99103.53;5132996;27;20050;-78
2021/07/11 10:45:14;;;;;;;1.67;1.23;;;;;;;23.22;53.24;99103.16;5150020;27;20095;-78
2021/07/11 10:47:41;;;;;;;3.10;1.43;;;;;;;23.06;53.84;99112.47;5153323;27;20054;-78
2021/07/11 10:50:22;;;;;;;1.65;0.95;;;;;;;22.93;55.56;99109.09;5151213;27;20047;-78
2021/07/11 10:52:51;;;;;;;2.05;0.93;;;;;;;22.65;53.77;99096.41;5153633;27;20050;-79
2021/07/11 10:55:18;;;;;;;1.98;1.25;;;;;;;22.49;54.47;99102.94;5153972;27;20046;-79
2021/07/11 10:57:49;;;;;;;2.28;0.98;;;;;;;22.50;53.55;99104.63;5150198;27;20046;-78
2021/07/11 11:00:19;;;;;;;1.10;0.95;;;;;;;22.62;53.24;99113.56;5137736;27;20043;-79
2021/07/11 11:02:50;;;;;;;2.35;1.50;;;;;;;23.00;55.72;99103.28;5150333;27;20054;-79
2021/07/11 11:05:23;;;;;;;2.53;1.60;;;;;;;23.02;52.26;99103.88;5146785;27;20051;-79
2021/07/11 11:07:55;;;;;;;1.50;1.40;;;;;;;23.04;52.68;99115.53;5131616;27;20049;-78
2021/07/11 11:10:28;;;;;;;1.25;1.10;;;;;;;23.09;52.99;99103.63;5132935;28;20115;-78
2021/07/11 11:13:11;;;;;;;5.28;1.35;;;;;;;23.39;50.92;99111.28;5131854;27;20043;-78
2021/07/11 11:15:41;;;;;;;2.20;1.20;;;;;;;23.70;52.48;99097.53;5142329;27;20454;-78
2021/07/11 11:18:20;;;;;;;1.58;1.00;;;;;;;23.65;50.96;99089.19;5152672;27;20510;-78
2021/07/11 11:20:53;;;;;;;2.88;1.10;;;;;;;23.45;50.50;99103.81;5152997;27;20050;-78
2021/07/11 11:23:21;;;;;;;2.42;1.23;;;;;;;23.87;50.40;99089.00;5143919;27;20054;-79
2021/07/11 11:25:48;;;;;;;3.80;1.20;;;;;;;23.92;47.80;99088.16;5131598;27;20043;-78
2021/07/11 11:28:26;;;;;;;2.45;1.30;;;;;;;23.81;48.31;99102.00;5144976;27;20051;-78
2021/07/11 11:30:53;;;;;;;1.85;1.20;;;;;;;23.49;51.47;99082.75;5152717;27;20490;-78
2021/07/11 11:33:20;;;;;;;2.88;1.38;;;;;;;24.05;49.70;99081.25;5151615;27;20046;-79
2021/07/11 11:35:49;;;;;;;2.00;1.23;;;;;;;23.79;48.70;99083.97;5153076;27;20058;-78
2021/07/11 11:38:15;;;;;;;1.30;1.20;;;;;;;24.02;48.88;99089.00;5151910;27;20055;-79
2021/07/11 11:40:45;;;;;;;3.25;1.20;;;;;;;23.48;51.28;99081.09;5152217;27;20054;-78